Tuesday, November 21, 2017, 3:43 PM GMT
Back to Local

CYQB, Quebec, Que

Location: , , Canada Lat: 46.8
Local Time: 3:43 PM GMT (15:43 GMT) Lon: -71.383
Time Zone: GMT Elev: 229 ft

Show me the last for .
Show Decoded

2017-11-21 15:00 METAR CYQB 211500Z 05010KT 12SM FEW025 FEW045 SCT140 BKN220 M05/M12 A2986 RMK
                 SC1SC2AC2CI2 SC TR SLP119 =
2017-11-21 14:00 METAR CYQB 211400Z 05009KT 15SM FEW025 BKN044 M06/M12 A2990 RMK SC2SC5 SLP131 =
2017-11-21 13:00 METAR CYQB 211300Z 05006KT 12SM BKN025 OVC041 M07/M12 A2991 RMK SC5SC3 SLP137 =
2017-11-21 12:00 METAR CYQB 211200Z 04007KT 15SM OVC022 M09/M13 A2994 RMK SC8 SLP146 =
2017-11-21 11:00 METAR CYQB 211100Z 02005KT 15SM OVC027 M09/M13 A2996 RMK SC8 SLP155 =
2017-11-21 10:14 METAR CYQB 211014Z 02004KT 15SM SCT034 OVC041 M10/M13 A2997 RMK SC4SC4 SLP158 =
2017-11-21 10:00 METAR CYQB 211000Z 03002KT 15SM -SN BKN031 OVC045 M10/M13 A2998 RMK SC5SC3
                 SLP160 =
2017-11-21 09:46 METAR CYQB 210946Z 02003KT 15SM -SN BKN031 OVC043 M10/M13 A2998 RMK SC7SC1
                 SLP160 =
2017-11-21 09:00 METAR CYQB 210900Z 02003KT 15SM BKN032 OVC044 M10/M13 A2998 RMK SC6SC2 SLP158 =
2017-11-21 08:00 METAR CYQB 210800Z 00000KT 15SM FEW030 M11/M14 A2998 RMK SC1 SLP160 =
2017-11-21 07:00 METAR CYQB 210700Z 26002KT 15SM SKC M10/M14 A2998 RMK SLP159 =
2017-11-21 06:00 METAR CYQB 210600Z VRB02KT 15SM BKN038 M09/M14 A2998 RMK SC5 SLP159 =
2017-11-21 05:00 METAR CYQB 210500Z 26004KT 15SM OVC036 M09/M14 A2999 RMK SC8 SLP162 =
2017-11-21 04:00 METAR CYQB 210400Z 26007KT 15SM FEW010 OVC039 M10/M14 A2998 RMK SC1SC8 SC TR
                 SLP160 =
2017-11-21 03:00 METAR CYQB 210300Z 26008KT 15SM FEW005 FEW010 FEW035 M11/M15 A2997 RMK FU1SC1SC2
                 FU TR SC TR FU OVR CITY SC OVR RIVER SLP157 =
2017-11-21 02:00 METAR CYQB 210200Z 25008KT 15SM FEW005 FEW010 M12/M15 A2996 RMK FU1SC1 FU TR
                 CHIMNEY SMOKE OVER CITY SC OVR RIVER SLP152 =
2017-11-21 01:00 METAR CYQB 210100Z 26005KT 15SM FEW015 FEW036 M12/M16 A2995 RMK SC1SC1 SLP149 =
2017-11-21 00:00 METAR CYQB 210000Z 24005KT 15SM FEW035 M11/M16 A2994 RMK SC1 SLP146 =
2017-11-20 23:00 METAR CYQB 202300Z 25007KT 15SM FEW036 M11/M17 A2992 RMK SC2 SLP140 =
2017-11-20 22:00 METAR CYQB 202200Z 27010G15KT 15SM VCSH FEW039 M10/M17 A2989 RMK SC2 SLP130 =
2017-11-20 21:00 METAR CYQB 202100Z 28015G22KT 20SM VCSH BKN039 BKN100 M09/M17 A2986 RMK SC7AC1
                 AC TR SLP119 =
2017-11-20 20:00 METAR CYQB 202000Z 27018G23KT 15SM VCSH BKN035 M09/M16 A2983 RMK SC7 SLP106 =
2017-11-20 19:00 METAR CYQB 201900Z 27019KT 15SM VCSH FEW025 BKN039 BKN100 BKN220 M09/M16 A2980
                 RMK SC1SC5AC1CI1 CI TR SLP096 =
2017-11-20 18:00 METAR CYQB 201800Z 25018G23KT 15SM VCSH BKN027 BKN045 M08/M14 A2977 RMK SC6SC1
                 SLP087 =
2017-11-20 17:04 METAR CYQB 201704Z 25020G28KT 15SM -SHSN FEW015 BKN025 BKN080 M07/M14 A2975 RMK
                 SC1SC5AC1 VIS N LWR SLP080 =
2017-11-20 17:00 METAR CYQB 201700Z 25018G23KT 15SM VCSH FEW015 BKN025 BKN080 M07/M14 A2975 RMK
                 SC1SC5AC2 SC TR SLP080 =
2017-11-20 16:00 METAR CYQB 201600Z 27015KT 15SM VCSH FEW015 SCT030 BKN080 M08/M14 A2974 RMK
                 SC1SC4AC3 SC TR SLP077 =

Support USWX by starting your Amazon purchase here.